Time;durP1;ratioP1;P1;durP2;ratioP2;P2;SDS_P1;SDS_P2;PMS_P1;PMS_P2;Temp;Humidity;BMP_temperature;BMP_pressure;BME280_temperature;BME280_humidity;BME280_pressure;Samples;Min_cycle;Max_cycle;Signal;HPM_P1;HPM_P2
2023/06/23 00:00:15;;;;;;;9.27;6.93;;;19.10;99.90;;;;;;5152902;27;20481;-58
2023/06/23 00:02:42;;;;;;;10.67;8.30;;;19.40;99.90;;;;;;5152212;27;20935;-56
2023/06/23 00:05:11;;;;;;;7.87;6.77;;;19.20;99.90;;;;;;5147737;27;20442;-57
2023/06/23 00:07:39;;;;;;;7.67;6.47;;;;;;;;;;5152825;27;20471;-55
2023/06/23 00:10:10;;;;;;;8.17;6.37;;;19.30;99.90;;;;;;5153226;27;20479;-57
2023/06/23 00:12:41;;;;;;;8.43;5.80;;;19.20;99.90;;;;;;5153203;27;20416;-57
2023/06/23 00:15:10;;;;;;;8.37;7.30;;;19.90;99.90;;;;;;5150559;27;20485;-59
2023/06/23 00:17:38;;;;;;;8.30;6.47;;;19.40;99.90;;;;;;5157756;27;20443;-59
2023/06/23 00:20:09;;;;;;;7.33;5.80;;;19.10;99.90;;;;;;5159736;27;20467;-56
2023/06/23 00:22:38;;;;;;;6.67;5.57;;;19.00;99.90;;;;;;5157743;27;20454;-58
2023/06/23 00:25:05;;;;;;;6.73;5.30;;;18.50;99.90;;;;;;5155008;27;20439;-58
2023/06/23 00:27:32;;;;;;;6.97;5.57;;;18.70;99.90;;;;;;5143885;27;20468;-57
2023/06/23 00:29:59;;;;;;;6.63;5.80;;;19.00;99.90;;;;;;5138729;28;20437;-54
2023/06/23 00:32:27;;;;;;;8.87;6.57;;;19.00;99.90;;;;;;5137540;28;20464;-59
2023/06/23 00:34:54;;;;;;;7.00;6.30;;;;;;;;;;5134138;28;20820;-58
2023/06/23 00:37:21;;;;;;;7.63;5.47;;;;;;;;;;5134074;28;20459;-57
2023/06/23 00:39:49;;;;;;;8.93;5.87;;;18.70;99.90;;;;;;5133776;28;20972;-57
2023/06/23 00:42:16;;;;;;;7.50;6.50;;;18.90;99.90;;;;;;5134396;28;20436;-59
2023/06/23 00:44:43;;;;;;;7.37;5.53;;;18.70;99.90;;;;;;5131929;28;20483;-60
2023/06/23 00:47:10;;;;;;;9.07;6.47;;;19.10;99.90;;;;;;5133445;28;20417;-58
2023/06/23 00:49:40;;;;;;;6.67;6.00;;;18.90;99.90;;;;;;5133783;28;20811;-58
2023/06/23 00:52:09;;;;;;;8.70;7.17;;;;;;;;;;5129310;28;20480;-59
2023/06/23 00:54:37;;;;;;;6.70;5.87;;;19.00;99.90;;;;;;5132410;28;20455;-58
2023/06/23 00:57:04;;;;;;;8.17;5.33;;;19.50;99.90;;;;;;5142014;27;20460;-60
2023/06/23 00:59:31;;;;;;;7.77;6.53;;;19.00;99.90;;;;;;5152626;27;20427;-59
2023/06/23 01:01:59;;;;;;;9.10;6.03;;;19.00;99.90;;;;;;5158414;27;20553;-51
2023/06/23 01:04:29;;;;;;;8.40;5.80;;;;;;;;;;5156566;27;20470;-57
2023/06/23 01:07:10;;;;;;;7.30;5.47;;;19.50;99.90;;;;;;5152247;27;20482;-58
2023/06/23 01:09:45;;;;;;;7.33;5.30;;;19.00;99.90;;;;;;5150044;27;20463;-58
2023/06/23 01:12:20;;;;;;;8.47;6.00;;;18.70;99.90;;;;;;5151291;27;20463;-58
2023/06/23 01:14:53;;;;;;;15.93;6.40;;;18.90;99.90;;;;;;5157685;27;20419;-57
2023/06/23 01:17:27;;;;;;;9.07;6.17;;;19.20;99.90;;;;;;5155597;27;20436;-56
2023/06/23 01:20:16;;;;;;;10.57;7.00;;;19.90;99.90;;;;;;5155579;27;20428;-53
2023/06/23 01:22:54;;;;;;;8.23;5.80;;;19.00;99.90;;;;;;5158621;27;20463;-56
2023/06/23 01:25:35;;;;;;;13.00;6.77;;;19.80;99.90;;;;;;5157730;27;20441;-59
2023/06/23 01:28:30;;;;;;;9.00;6.33;;;18.90;99.90;;;;;;5138591;27;20492;-57
2023/06/23 01:31:00;;;;;;;10.77;6.83;;;18.80;99.90;;;;;;5134859;28;20471;-57
2023/06/23 01:33:36;;;;;;;12.67;8.00;;;19.00;99.90;;;;;;5133849;28;20458;-49
2023/06/23 01:36:07;;;;;;;8.87;6.47;;;19.10;99.90;;;;;;5137751;28;20506;-52
2023/06/23 01:38:38;;;;;;;16.70;7.80;;;19.20;99.90;;;;;;5137747;28;20416;-55
2023/06/23 01:41:09;;;;;;;14.47;11.17;;;19.10;99.90;;;;;;5135264;28;20464;-56
2023/06/23 01:43:40;;;;;;;10.37;7.17;;;19.10;99.90;;;;;;5133578;28;20440;-58
2023/06/23 01:46:12;;;;;;;13.03;7.67;;;19.10;99.90;;;;;;5133180;28;20440;-57
2023/06/23 01:48:43;;;;;;;9.77;6.47;;;19.10;99.90;;;;;;5129725;28;20425;-57
2023/06/23 01:51:12;;;;;;;13.13;7.80;;;19.00;99.90;;;;;;5133512;28;20512;-56
2023/06/23 01:53:40;;;;;;;11.90;8.00;;;19.60;99.90;;;;;;5131877;28;20484;-57
2023/06/23 01:56:10;;;;;;;7.70;6.77;;;18.90;99.90;;;;;;5134513;27;20452;-57
2023/06/23 01:58:40;;;;;;;9.67;6.60;;;19.60;99.90;;;;;;5153123;27;20469;-59
2023/06/23 02:01:08;;;;;;;10.73;7.00;;;18.90;99.90;;;;;;5147140;27;20429;-59
2023/06/23 02:03:36;;;;;;;11.97;7.90;;;18.80;99.90;;;;;;5153806;27;20444;-58
2023/06/23 02:06:04;;;;;;;10.83;6.57;;;19.00;99.90;;;;;;5150438;27;20535;-57
2023/06/23 02:08:34;;;;;;;8.77;6.67;;;19.00;99.90;;;;;;5152985;27;20490;-58
2023/06/23 02:11:02;;;;;;;10.50;6.37;;;18.80;99.90;;;;;;5152959;27;20474;-59
2023/06/23 02:13:31;;;;;;;10.27;7.47;;;18.90;99.90;;;;;;5152054;27;20491;-55
2023/06/23 02:16:01;;;;;;;9.40;7.87;;;18.80;99.90;;;;;;5154084;27;20440;-59
2023/06/23 02:18:29;;;;;;;12.27;7.17;;;18.90;99.90;;;;;;5153562;27;20791;-58
2023/06/23 02:20:57;;;;;;;9.43;7.27;;;18.90;99.90;;;;;;5153975;27;20432;-58
2023/06/23 02:23:25;;;;;;;10.13;7.33;;;18.90;99.90;;;;;;5153187;27;20483;-57
2023/06/23 02:25:54;;;;;;;7.60;6.13;;;18.80;99.90;;;;;;5149766;27;20534;-58
2023/06/23 02:28:23;;;;;;;9.40;6.03;;;19.00;99.90;;;;;;5132607;28;20440;-57
2023/06/23 02:30:51;;;;;;;10.30;6.10;;;19.00;99.90;;;;;;5132489;28;20512;-58
2023/06/23 02:33:19;;;;;;;9.23;6.47;;;19.10;99.90;;;;;;5130973;28;20437;-59
2023/06/23 02:35:46;;;;;;;7.33;6.17;;;18.60;99.90;;;;;;5119612;28;20503;-58
2023/06/23 02:38:16;;;;;;;9.00;6.13;;;18.70;99.90;;;;;;5132664;28;21093;-58
2023/06/23 02:40:45;;;;;;;8.30;5.57;;;18.50;99.90;;;;;;5132858;28;20444;-58
2023/06/23 02:43:20;;;;;;;9.53;5.90;;;18.80;99.90;;;;;;5129229;28;20468;-59
2023/06/23 02:45:50;;;;;;;7.47;5.90;;;18.70;99.90;;;;;;5128824;28;20459;-58
2023/06/23 02:48:21;;;;;;;9.43;5.90;;;18.80;99.90;;;;;;5132123;28;20460;-58
2023/06/23 02:50:50;;;;;;;9.60;6.27;;;18.60;99.90;;;;;;5131471;28;20461;-58
2023/06/23 02:53:22;;;;;;;11.63;6.57;;;18.70;99.90;;;;;;5132648;28;20465;-58
2023/06/23 02:55:55;;;;;;;7.90;6.27;;;18.70;99.90;;;;;;5134021;28;20409;-58
2023/06/23 02:58:26;;;;;;;8.60;6.20;;;19.10;99.90;;;;;;5156347;28;20452;-56
2023/06/23 03:00:54;;;;;;;9.93;6.80;;;18.80;99.90;;;;;;5156166;28;20483;-58
2023/06/23 03:03:22;;;;;;;6.33;5.13;;;18.80;99.90;;;;;;5153654;28;20463;-58
2023/06/23 03:05:50;;;;;;;7.20;5.37;;;18.80;99.90;;;;;;5153770;28;20474;-58
2023/06/23 03:08:17;;;;;;;9.97;6.70;;;18.70;99.90;;;;;;5148932;28;20499;-58
2023/06/23 03:10:44;;;;;;;7.97;5.40;;;18.90;99.90;;;;;;5152815;28;20437;-58
2023/06/23 03:13:11;;;;;;;10.17;6.20;;;19.30;99.90;;;;;;5153202;28;20491;-58
2023/06/23 03:15:38;;;;;;;6.40;5.73;;;;;;;;;;5148692;28;20487;-58
2023/06/23 03:18:11;;;;;;;10.63;5.60;;;18.80;99.90;;;;;;5153340;28;20539;-58
2023/06/23 03:20:44;;;;;;;7.30;5.80;;;18.90;99.90;;;;;;5153377;28;20416;-59
2023/06/23 03:23:13;;;;;;;9.17;5.97;;;19.00;99.90;;;;;;5149897;28;20441;-58
2023/06/23 03:25:41;;;;;;;7.17;6.10;;;18.90;99.90;;;;;;5152125;28;20532;-56
2023/06/23 03:28:10;;;;;;;8.00;6.10;;;18.60;99.90;;;;;;5130119;28;20440;-58
2023/06/23 03:30:40;;;;;;;7.03;6.10;;;19.00;99.90;;;;;;5130378;28;20452;-59
2023/06/23 03:33:13;;;;;;;7.20;5.70;;;19.00;99.90;;;;;;5128658;28;20955;-55
2023/06/23 03:35:44;;;;;;;6.83;5.73;;;18.80;99.90;;;;;;5130804;28;20925;-55
2023/06/23 03:38:15;;;;;;;7.37;5.70;;;19.10;99.90;;;;;;5129663;28;20506;-57
2023/06/23 03:40:46;;;;;;;8.60;5.80;;;19.10;99.90;;;;;;5132212;28;20464;-56
2023/06/23 03:43:18;;;;;;;7.13;6.17;;;19.00;99.90;;;;;;5128307;28;20444;-57
2023/06/23 03:45:50;;;;;;;9.37;5.77;;;18.90;99.90;;;;;;5123891;28;20435;-57
2023/06/23 03:48:19;;;;;;;5.93;4.63;;;19.00;99.90;;;;;;5132069;28;20472;-57
2023/06/23 03:50:55;;;;;;;5.70;5.10;;;19.10;99.90;;;;;;5132944;28;20464;-57
2023/06/23 03:53:22;;;;;;;9.97;6.93;;;19.10;99.90;;;;;;5131938;28;20904;-59
2023/06/23 03:55:52;;;;;;;7.67;5.97;;;19.10;99.90;;;;;;5130144;28;20432;-59
2023/06/23 03:58:25;;;;;;;6.17;5.30;;;19.00;99.90;;;;;;5151877;28;20471;-59
2023/06/23 04:00:53;;;;;;;11.67;5.53;;;19.20;99.90;;;;;;5155208;28;20451;-53
2023/06/23 04:03:22;;;;;;;6.37;5.50;;;19.00;99.90;;;;;;5158123;27;20494;-55
2023/06/23 04:05:52;;;;;;;9.47;6.97;;;19.10;99.90;;;;;;5159624;27;20444;-57
2023/06/23 04:08:20;;;;;;;11.07;6.80;;;19.10;99.90;;;;;;5159612;27;20428;-58
2023/06/23 04:10:48;;;;;;;11.43;7.20;;;19.10;99.90;;;;;;5155299;27;20416;-60
2023/06/23 04:13:17;;;;;;;8.13;5.70;;;18.90;99.90;;;;;;5156678;27;20471;-58
2023/06/23 04:15:46;;;;;;;12.13;6.43;;;19.70;99.90;;;;;;5158733;27;20471;-57
2023/06/23 04:18:15;;;;;;;7.70;6.60;;;19.10;99.90;;;;;;5159712;27;20478;-57
2023/06/23 04:20:45;;;;;;;10.97;7.43;;;19.00;99.90;;;;;;5159029;27;20483;-55
2023/06/23 04:23:14;;;;;;;8.10;6.60;;;18.90;99.90;;;;;;5153125;27;20449;-56
2023/06/23 04:25:44;;;;;;;7.80;6.30;;;18.70;99.90;;;;;;5149749;27;20479;-58
2023/06/23 04:28:15;;;;;;;9.60;6.47;;;18.80;99.90;;;;;;5137209;27;20447;-57
2023/06/23 04:30:44;;;;;;;9.90;7.00;;;18.80;99.90;;;;;;5135828;28;20429;-58
2023/06/23 04:33:14;;;;;;;11.70;7.10;;;18.90;99.90;;;;;;5133787;28;20484;-58
2023/06/23 04:35:40;;;;;;;13.80;7.07;;;18.90;99.90;;;;;;5133172;28;20456;-59
2023/06/23 04:38:12;;;;;;;11.07;6.73;;;19.20;99.90;;;;;;5135818;28;20433;-58
2023/06/23 04:40:45;;;;;;;7.87;7.07;;;19.00;99.90;;;;;;5129911;28;20495;-58
2023/06/23 04:43:15;;;;;;;8.07;6.47;;;19.10;99.90;;;;;;5135788;28;20488;-57
2023/06/23 04:45:51;;;;;;;8.70;7.10;;;19.10;99.90;;;;;;5132703;28;20526;-58
2023/06/23 04:48:30;;;;;;;8.53;6.83;;;19.20;99.90;;;;;;5129922;28;20471;-58
2023/06/23 04:50:59;;;;;;;8.13;6.77;;;19.30;99.90;;;;;;5134193;28;20429;-57
2023/06/23 04:53:31;;;;;;;11.57;7.00;;;19.30;99.90;;;;;;5131998;28;20512;-59
2023/06/23 04:56:04;;;;;;;11.20;7.63;;;19.50;99.90;;;;;;5134709;28;20427;-57
2023/06/23 04:58:35;;;;;;;9.60;7.60;;;19.20;99.90;;;;;;5132464;28;20848;-59
2023/06/23 05:01:03;;;;;;;18.63;7.30;;;19.00;99.90;;;;;;5130898;28;20477;-59
2023/06/23 05:03:31;;;;;;;11.40;7.87;;;19.20;99.90;;;;;;5134904;28;20470;-55
2023/06/23 05:06:00;;;;;;;10.57;7.60;;;19.40;99.90;;;;;;5134848;28;20440;-58
2023/06/23 05:08:29;;;;;;;11.73;7.53;;;19.50;99.90;;;;;;5135469;28;20444;-58
2023/06/23 05:11:05;;;;;;;10.90;8.07;;;19.20;99.90;;;;;;5134808;28;20471;-57
2023/06/23 05:13:33;;;;;;;9.43;8.40;;;19.30;99.90;;;;;;5134512;28;20475;-57
2023/06/23 05:16:02;;;;;;;10.30;8.77;;;19.30;99.90;;;;;;5134167;28;20468;-58
2023/06/23 05:18:30;;;;;;;11.70;7.80;;;19.10;99.90;;;;;;5133617;28;20457;-58
2023/06/23 05:21:00;;;;;;;9.93;7.33;;;19.40;99.90;;;;;;5134629;28;20452;-59
2023/06/23 05:23:28;;;;;;;10.00;7.80;;;19.30;99.90;;;;;;5134029;28;20480;-57
2023/06/23 05:25:57;;;;;;;11.80;8.80;;;19.30;99.90;;;;;;5133604;28;20440;-58
2023/06/23 05:28:31;;;;;;;11.13;8.50;;;19.30;99.90;;;;;;5134344;28;20473;-57
2023/06/23 05:31:00;;;;;;;11.50;9.47;;;19.30;99.90;;;;;;5134071;28;20441;-58
2023/06/23 05:33:28;;;;;;;14.33;10.07;;;20.00;99.90;;;;;;5134135;28;20487;-58
2023/06/23 05:35:57;;;;;;;12.30;9.87;;;19.40;99.90;;;;;;5133752;28;20468;-58
2023/06/23 05:38:25;;;;;;;12.10;8.70;;;19.30;99.90;;;;;;5130949;28;20463;-58
2023/06/23 05:40:52;;;;;;;9.67;7.97;;;19.30;99.90;;;;;;5132252;28;20491;-57
2023/06/23 05:43:22;;;;;;;10.00;8.90;;;19.30;99.90;;;;;;5131414;28;20437;-56
2023/06/23 05:45:52;;;;;;;11.13;9.37;;;19.40;99.90;;;;;;5137075;28;20452;-53
2023/06/23 05:48:27;;;;;;;12.53;9.47;;;19.20;99.90;;;;;;5133717;28;20471;-58
2023/06/23 05:50:56;;;;;;;13.43;10.10;;;19.40;99.90;;;;;;5131624;28;20448;-57
2023/06/23 05:53:28;;;;;;;12.47;10.13;;;19.30;99.90;;;;;;5129969;27;21020;-57
2023/06/23 05:56:01;;;;;;;9.00;7.93;;;19.40;99.90;;;;;;5130020;28;20488;-58
2023/06/23 05:58:32;;;;;;;13.07;10.00;;;19.30;99.90;;;;;;5122399;28;20889;-57
2023/06/23 06:01:05;;;;;;;13.80;10.47;;;19.50;99.90;;;;;;5135932;28;20456;-56
2023/06/23 06:03:38;;;;;;;12.70;10.03;;;19.40;99.90;;;;;;5132316;28;20444;-58
2023/06/23 06:06:07;;;;;;;14.87;10.33;;;19.60;99.90;;;;;;5131075;28;20433;-58
2023/06/23 06:08:38;;;;;;;14.67;9.37;;;20.10;99.90;;;;;;5130675;28;20452;-56
2023/06/23 06:11:06;;;;;;;10.40;8.80;;;19.70;99.90;;;;;;5133890;28;20460;-57
2023/06/23 06:13:38;;;;;;;10.73;8.90;;;19.50;99.90;;;;;;5131202;28;20544;-58
2023/06/23 06:16:15;;;;;;;12.53;9.40;;;19.40;99.90;;;;;;5137217;27;20486;-59
2023/06/23 06:18:46;;;;;;;12.23;8.50;;;19.60;99.90;;;;;;5133701;28;20494;-58
2023/06/23 06:21:13;;;;;;;13.57;9.50;;;19.30;99.90;;;;;;5131793;28;20953;-63
2023/06/23 06:23:42;;;;;;;13.00;9.50;;;19.80;99.90;;;;;;5133342;27;20440;-56
2023/06/23 06:26:11;;;;;;;14.83;9.80;;;19.40;99.90;;;;;;5133963;27;20459;-58
2023/06/23 06:28:40;;;;;;;11.77;9.23;;;19.70;99.90;;;;;;5141469;27;20562;-60
2023/06/23 06:31:10;;;;;;;11.83;9.10;;;19.50;99.90;;;;;;5142436;27;20437;-57
2023/06/23 06:33:38;;;;;;;13.57;9.67;;;19.40;99.90;;;;;;5134087;28;20808;-58
2023/06/23 06:36:08;;;;;;;12.77;9.90;;;20.10;99.90;;;;;;5135378;27;20530;-59
2023/06/23 06:38:40;;;;;;;11.53;8.53;;;19.80;99.90;;;;;;5136980;27;20464;-58
2023/06/23 06:41:09;;;;;;;11.40;8.10;;;20.00;99.90;;;;;;5135492;27;20496;-56
2023/06/23 06:43:36;;;;;;;15.10;9.63;;;20.00;99.90;;;;;;5152740;27;20485;-57
2023/06/23 06:46:04;;;;;;;12.77;9.70;;;20.00;99.90;;;;;;5148983;27;20443;-58
2023/06/23 06:48:35;;;;;;;16.07;10.13;;;19.70;99.90;;;;;;5153763;27;20466;-58
2023/06/23 06:51:03;;;;;;;18.03;11.17;;;20.00;99.90;;;;;;5147559;27;20491;-58
2023/06/23 06:53:31;;;;;;;12.80;9.47;;;;;;;;;;5150601;27;20520;-58
2023/06/23 06:55:59;;;;;;;12.67;9.10;;;19.80;99.90;;;;;;5148342;27;20467;-58
2023/06/23 06:58:27;;;;;;;12.20;10.60;;;19.90;99.90;;;;;;5130341;28;20459;-58
2023/06/23 07:00:54;;;;;;;14.10;10.00;;;20.00;99.90;;;;;;5131517;28;20471;-58
2023/06/23 07:03:22;;;;;;;16.10;11.80;;;19.80;99.90;;;;;;5127530;28;20546;-55
2023/06/23 07:05:50;;;;;;;16.80;10.30;;;20.00;99.90;;;;;;5131416;28;20441;-59
2023/06/23 07:08:17;;;;;;;13.50;10.00;;;20.10;99.90;;;;;;5134465;28;20466;-58
2023/06/23 07:10:44;;;;;;;15.43;11.13;;;;;;;;;;5133465;28;20449;-59
2023/06/23 07:13:11;;;;;;;16.70;11.37;;;20.30;99.90;;;;;;5133471;28;20492;-59
2023/06/23 07:15:38;;;;;;;15.07;10.63;;;;;;;;;;5127149;28;20487;-58
2023/06/23 07:18:05;;;;;;;13.00;10.13;;;20.40;99.90;;;;;;5124047;28;20523;-59
2023/06/23 07:20:32;;;;;;;11.70;9.17;;;20.30;99.90;;;;;;5134938;28;20444;-58
2023/06/23 07:23:00;;;;;;;13.93;11.17;;;20.20;99.90;;;;;;5126057;28;20925;-57
2023/06/23 07:25:27;;;;;;;14.67;10.77;;;20.60;99.90;;;;;;5121904;28;20524;-57
2023/06/23 07:27:54;;;;;;;17.63;10.87;;;20.30;99.90;;;;;;5142529;28;20468;-55
2023/06/23 07:30:21;;;;;;;16.40;10.43;;;20.70;99.90;;;;;;5149284;28;20435;-58
2023/06/23 07:32:49;;;;;;;14.43;10.80;;;;;;;;;;5147502;28;20483;-58
2023/06/23 07:35:16;;;;;;;13.07;10.47;;;20.50;99.90;;;;;;5148680;28;20440;-57
2023/06/23 07:37:46;;;;;;;15.90;11.67;;;20.20;99.90;;;;;;5150763;27;20475;-59
2023/06/23 07:40:14;;;;;;;19.73;11.07;;;20.20;99.90;;;;;;5153794;27;20463;-59
2023/06/23 07:42:41;;;;;;;15.20;11.47;;;20.00;99.90;;;;;;5155714;27;20548;-58
2023/06/23 07:45:09;;;;;;;15.00;9.97;;;20.20;99.90;;;;;;5155430;27;20459;-58
2023/06/23 07:47:36;;;;;;;13.00;10.23;;;;;;;;;;5154876;27;20435;-58
2023/06/23 07:50:04;;;;;;;16.23;12.33;;;;;;;;;;5155400;27;20447;-59
2023/06/23 07:52:30;;;;;;;13.07;10.53;;;20.20;99.90;;;;;;5152314;27;20651;-57
2023/06/23 07:54:57;;;;;;;13.67;11.33;;;20.40;99.90;;;;;;5153784;27;20478;-57
2023/06/23 07:57:26;;;;;;;14.90;11.40;;;20.10;99.90;;;;;;5145676;27;20454;-59
2023/06/23 07:59:53;;;;;;;13.67;10.03;;;20.40;99.90;;;;;;5129533;28;20459;-58
2023/06/23 08:02:19;;;;;;;13.40;11.40;;;20.40;99.90;;;;;;5134399;28;20497;-55
2023/06/23 08:04:46;;;;;;;13.90;9.67;;;20.00;99.90;;;;;;5137738;28;20448;-55
2023/06/23 08:07:13;;;;;;;16.43;10.30;;;20.20;99.90;;;;;;5135599;28;20436;-58
2023/06/23 08:09:40;;;;;;;11.63;9.73;;;20.00;99.90;;;;;;5135018;28;20443;-57
2023/06/23 08:12:08;;;;;;;12.80;10.70;;;20.40;99.90;;;;;;5136776;28;20501;-57
2023/06/23 08:14:37;;;;;;;13.93;8.97;;;20.10;99.90;;;;;;5135256;28;20436;-58
2023/06/23 08:17:04;;;;;;;10.63;9.60;;;;;;;;;;5138406;28;20424;-55
2023/06/23 08:19:31;;;;;;;16.23;8.63;;;;;;;;;;5138997;28;20464;-56
2023/06/23 08:21:58;;;;;;;11.53;9.27;;;;;;;;;;5135015;27;20447;-55
2023/06/23 08:24:25;;;;;;;12.10;9.63;;;;;;;;;;5157504;27;20443;-50
2023/06/23 08:26:52;;;;;;;16.50;9.37;;;20.10;99.90;;;;;;5141093;27;20460;-55
2023/06/23 08:29:20;;;;;;;10.93;8.73;;;20.20;99.90;;;;;;5135341;28;20444;-57
2023/06/23 08:31:49;;;;;;;14.57;10.07;;;20.10;99.90;;;;;;5147320;27;20444;-58
2023/06/23 08:34:18;;;;;;;11.63;10.40;;;19.90;99.90;;;;;;5142633;27;20587;-57
2023/06/23 08:36:48;;;;;;;13.40;8.63;;;20.20;99.90;;;;;;5142981;27;20473;-54
2023/06/23 08:39:15;;;;;;;16.53;9.00;;;;;;;;;;5126405;27;20481;-59
2023/06/23 08:41:43;;;;;;;7.77;6.97;;;19.90;99.90;;;;;;5125952;28;20507;-60
2023/06/23 08:44:14;;;;;;;9.77;7.80;;;20.10;99.90;;;;;;5125017;28;20444;-58
2023/06/23 08:46:42;;;;;;;9.60;8.00;;;20.30;99.90;;;;;;5125323;28;20464;-58
2023/06/23 08:49:16;;;;;;;8.47;7.17;;;20.20;99.90;;;;;;5124956;28;20463;-57
2023/06/23 08:51:43;;;;;;;10.87;8.57;;;19.90;99.90;;;;;;5125647;28;20424;-61
2023/06/23 08:54:10;;;;;;;8.33;7.33;;;20.10;99.90;;;;;;5124970;28;20507;-57
2023/06/23 08:56:37;;;;;;;9.53;7.33;;;;;;;;;;5125240;27;20535;-60
2023/06/23 08:59:04;;;;;;;8.90;6.80;;;20.10;99.90;;;;;;5127196;28;20491;-59
2023/06/23 09:01:31;;;;;;;8.73;7.37;;;19.70;99.90;;;;;;5130911;28;20448;-58
2023/06/23 09:03:58;;;;;;;13.13;8.60;;;19.80;99.90;;;;;;5123400;28;20487;-60
2023/06/23 09:06:27;;;;;;;9.60;7.27;;;;;;;;;;5116689;28;20513;-59
2023/06/23 09:08:54;;;;;;;9.97;7.63;;;19.90;99.90;;;;;;5119297;28;20456;-60
2023/06/23 09:11:21;;;;;;;9.13;7.20;;;20.20;99.90;;;;;;5120609;28;20868;-58
2023/06/23 09:13:52;;;;;;;10.87;9.20;;;19.90;99.90;;;;;;5122557;28;20568;-56
2023/06/23 09:16:19;;;;;;;10.63;7.87;;;20.20;99.90;;;;;;5124377;28;20472;-58
2023/06/23 09:18:47;;;;;;;10.30;8.43;;;20.10;99.90;;;;;;5125339;28;20514;-60
2023/06/23 09:21:15;;;;;;;12.20;6.80;;;;;;;;;;5120157;28;20445;-59
2023/06/23 09:23:58;;;;;;;11.47;8.37;;;19.70;99.90;;;;;;5130789;28;20425;-50
2023/06/23 09:26:26;;;;;;;9.53;8.27;;;20.20;99.90;;;;;;5131783;28;20456;-58
2023/06/23 09:28:53;;;;;;;10.23;8.20;;;19.80;99.90;;;;;;5131211;28;20440;-56
2023/06/23 09:31:20;;;;;;;10.57;7.60;;;19.90;99.90;;;;;;5130412;28;20496;-59
2023/06/23 09:33:48;;;;;;;14.73;8.90;;;19.90;99.90;;;;;;5123313;28;20511;-57
2023/06/23 09:36:15;;;;;;;14.33;9.40;;;;;;;;;;5123464;28;20457;-58
2023/06/23 09:38:42;;;;;;;11.07;9.57;;;;;;;;;;5123611;28;20469;-58
2023/06/23 09:41:12;;;;;;;14.80;10.90;;;19.90;99.90;;;;;;5123450;28;20467;-60
2023/06/23 09:43:41;;;;;;;15.90;11.37;;;19.20;99.90;;;;;;5123703;28;20539;-59
2023/06/23 09:46:09;;;;;;;19.10;11.90;;;19.90;99.90;;;;;;5123302;28;20539;-56
2023/06/23 09:48:37;;;;;;;14.27;12.30;;;19.70;99.90;;;;;;5123612;28;20499;-58
2023/06/23 09:51:05;;;;;;;24.87;18.23;;;19.90;99.90;;;;;;5124931;27;20479;-57
2023/06/23 09:53:33;;;;;;;28.63;19.30;;;20.00;99.90;;;;;;5128930;27;20536;-57
2023/06/23 09:56:00;;;;;;;24.77;16.83;;;;;;;;;;5132367;27;20558;-56
2023/06/23 09:58:32;;;;;;;18.20;14.30;;;19.80;99.90;;;;;;5132909;27;21917;-54
2023/06/23 10:01:02;;;;;;;18.10;14.27;;;19.50;99.90;;;;;;5114897;28;20448;-59
2023/06/23 10:03:30;;;;;;;20.13;14.80;;;19.50;99.90;;;;;;5118680;27;20485;-60
2023/06/23 10:05:58;;;;;;;18.03;14.27;;;19.70;99.90;;;;;;5135354;27;20440;-63
2023/06/23 10:08:25;;;;;;;18.40;15.43;;;19.70;99.90;;;;;;5128622;27;20916;-58
2023/06/23 10:10:52;;;;;;;25.57;16.23;;;19.60;99.90;;;;;;5125215;27;20456;-57
2023/06/23 10:13:19;;;;;;;18.60;15.27;;;19.30;99.90;;;;;;5126100;28;20530;-56
2023/06/23 10:15:47;;;;;;;25.53;17.00;;;19.50;99.90;;;;;;5133780;27;20464;-52
2023/06/23 10:18:14;;;;;;;22.27;17.70;;;19.40;99.90;;;;;;5126281;28;20900;-59
2023/06/23 10:20:41;;;;;;;18.53;15.23;;;;;;;;;;5125122;28;20190;-58
2023/06/23 10:23:10;;;;;;;21.60;16.30;;;19.90;99.90;;;;;;5123998;28;20443;-59
2023/06/23 10:25:37;;;;;;;19.27;16.00;;;19.40;99.90;;;;;;5122961;28;20464;-58
2023/06/23 10:28:08;;;;;;;20.70;16.23;;;19.50;99.90;;;;;;5116263;28;20510;-57
2023/06/23 10:30:35;;;;;;;22.00;15.63;;;;;;;;;;5117218;28;20477;-59
2023/06/23 10:33:06;;;;;;;21.30;16.90;;;19.50;99.90;;;;;;5117936;28;21014;-58
2023/06/23 10:35:34;;;;;;;22.33;15.47;;;19.40;99.90;;;;;;5117988;28;20479;-59
2023/06/23 10:38:05;;;;;;;26.07;18.30;;;19.70;99.90;;;;;;5118805;28;20452;-56
2023/06/23 10:40:39;;;;;;;22.70;14.30;;;19.60;99.90;;;;;;5118994;28;20440;-58
2023/06/23 10:43:08;;;;;;;15.20;12.50;;;19.50;99.90;;;;;;5122117;28;20795;-55
2023/06/23 10:45:35;;;;;;;15.20;12.77;;;;;;;;;;5128378;28;20642;-56
2023/06/23 10:48:02;;;;;;;18.27;12.50;;;;;;;;;;5128241;28;20507;-60
2023/06/23 10:50:31;;;;;;;15.80;11.20;;;19.40;99.90;;;;;;5121964;28;20539;-58
2023/06/23 10:53:16;;;;;;;13.20;10.60;;;19.40;99.90;;;;;;5117803;28;20528;-59
2023/06/23 10:55:44;;;;;;;17.00;11.03;;;19.50;99.90;;;;;;5117977;28;20765;-58
2023/06/23 10:58:14;;;;;;;10.67;9.30;;;20.00;99.90;;;;;;5123481;28;20468;-56
2023/06/23 11:00:46;;;;;;;12.70;11.40;;;19.60;99.90;;;;;;5134682;27;20448;-57
2023/06/23 11:03:27;;;;;;;17.87;10.83;;;19.40;99.90;;;;;;5142654;27;20440;-55
2023/06/23 11:05:57;;;;;;;15.90;11.30;;;19.60;99.90;;;;;;5135436;28;20537;-57
2023/06/23 11:08:35;;;;;;;14.50;11.60;;;19.60;99.90;;;;;;5129799;28;20460;-58
2023/06/23 11:11:04;;;;;;;10.50;8.60;;;19.50;99.90;;;;;;5125364;28;20480;-56
2023/06/23 11:13:44;;;;;;;11.80;8.60;;;19.50;99.90;;;;;;5145224;27;20498;-56
2023/06/23 11:16:16;;;;;;;11.23;8.60;;;19.80;99.90;;;;;;5134944;28;20460;-57
2023/06/23 11:18:51;;;;;;;12.20;8.60;;;19.60;99.90;;;;;;5144220;27;20447;-57
2023/06/23 11:21:29;;;;;;;14.20;8.53;;;19.40;99.90;;;;;;5142193;27;20482;-59
2023/06/23 11:24:09;;;;;;;12.83;8.83;;;19.60;99.90;;;;;;5138559;27;20432;-56
2023/06/23 11:26:36;;;;;;;16.23;8.10;;;19.70;99.90;;;;;;5142451;27;20444;-55
2023/06/23 11:29:11;;;;;;;11.50;7.83;;;19.40;99.90;;;;;;5148538;27;20448;-58
2023/06/23 11:32:07;;;;;;;11.20;7.47;;;19.20;99.90;;;;;;5140536;28;20476;-56
2023/06/23 11:34:53;;;;;;;9.03;7.63;;;19.40;99.90;;;;;;5135081;28;20531;-58
2023/06/23 11:37:23;;;;;;;9.20;7.53;;;19.30;99.90;;;;;;5136696;28;20444;-58
2023/06/23 11:39:53;;;;;;;13.90;8.63;;;19.40;99.90;;;;;;5136527;28;20451;-58
2023/06/23 11:42:20;;;;;;;9.80;7.30;;;19.20;99.90;;;;;;5136821;28;20444;-59
2023/06/23 11:44:47;;;;;;;9.13;6.63;;;19.50;99.90;;;;;;5140949;27;20475;-58
2023/06/23 11:47:14;;;;;;;13.10;6.73;;;20.00;99.90;;;;;;5156159;27;20431;-58
2023/06/23 11:49:41;;;;;;;8.97;7.17;;;19.30;99.90;;;;;;5157307;27;20478;-58
2023/06/23 11:52:09;;;;;;;9.33;7.50;;;19.60;99.90;;;;;;5156449;27;20887;-58
2023/06/23 11:54:38;;;;;;;10.10;7.10;;;19.10;99.90;;;;;;5156413;27;20476;-58
2023/06/23 11:57:06;;;;;;;10.63;7.53;;;19.30;99.90;;;;;;5151489;27;20459;-53
2023/06/23 11:59:37;;;;;;;12.23;8.20;;;19.50;99.90;;;;;;5139159;28;20442;-56
2023/06/23 12:02:04;;;;;;;11.80;7.37;;;19.10;99.90;;;;;;5138205;28;20504;-57
2023/06/23 12:04:34;;;;;;;9.90;7.90;;;19.20;99.90;;;;;;5135755;28;20444;-55
2023/06/23 12:07:03;;;;;;;12.40;8.73;;;19.20;99.90;;;;;;5134988;28;20520;-57
2023/06/23 12:09:31;;;;;;;10.67;7.43;;;19.40;99.90;;;;;;5135134;28;20448;-58
2023/06/23 12:12:00;;;;;;;14.13;9.40;;;19.20;99.90;;;;;;5135764;28;20453;-59
2023/06/23 12:14:30;;;;;;;13.87;7.47;;;19.30;99.90;;;;;;5129382;28;20468;-56
2023/06/23 12:17:08;;;;;;;11.23;7.20;;;19.20;99.90;;;;;;5135823;28;20491;-56
2023/06/23 12:19:36;;;;;;;12.90;7.77;;;19.10;99.90;;;;;;5132186;28;20460;-59
2023/06/23 12:22:03;;;;;;;14.90;10.70;;;19.10;99.90;;;;;;5133935;28;20447;-55
2023/06/23 12:24:31;;;;;;;14.37;8.30;;;19.30;99.90;;;;;;5134736;28;20486;-57
2023/06/23 12:27:00;;;;;;;11.40;8.20;;;19.10;99.90;;;;;;5135414;28;20454;-54
2023/06/23 12:29:30;;;;;;;8.87;7.70;;;19.30;99.90;;;;;;5134381;28;20445;-55
2023/06/23 12:31:59;;;;;;;12.67;9.13;;;19.30;99.90;;;;;;5134941;28;20435;-59
2023/06/23 12:34:33;;;;;;;14.07;7.80;;;19.20;99.90;;;;;;5129591;28;20480;-57
2023/06/23 12:37:08;;;;;;;12.90;8.50;;;19.40;99.90;;;;;;5133156;28;20466;-54
2023/06/23 12:39:34;;;;;;;10.77;8.13;;;19.20;99.90;;;;;;5135341;28;20448;-59
2023/06/23 12:42:03;;;;;;;11.50;8.93;;;;;;;;;;5132524;28;20455;-56
2023/06/23 12:44:32;;;;;;;9.67;8.67;;;19.30;99.90;;;;;;5132120;28;20467;-57
2023/06/23 12:47:00;;;;;;;13.00;9.23;;;;;;;;;;5132981;28;20475;-56
2023/06/23 12:49:43;;;;;;;13.17;9.33;;;19.00;99.90;;;;;;5126926;28;20452;-58
2023/06/23 12:52:11;;;;;;;10.97;7.27;;;19.10;99.90;;;;;;5135941;28;20459;-57
2023/06/23 12:54:38;;;;;;;10.93;7.70;;;;;;;;;;5134874;28;20461;-57
2023/06/23 12:57:10;;;;;;;11.57;7.30;;;;;;;;;;5143302;27;20455;-55
2023/06/23 12:59:38;;;;;;;10.73;7.00;;;;;;;;;;5144407;27;20477;-57